Time;durP1;ratioP1;P1;durP2;ratioP2;P2;SDS_P1;SDS_P2;PMS_P1;PMS_P2;Temp;Humidity;BMP_temperature;BMP_pressure;BME280_temperature;BME280_humidity;BME280_pressure;Samples;Min_cycle;Max_cycle;Signal;HPM_P1;HPM_P2
2023/01/02 00:02:16;;;;;;;;;;;;;;;7.30;100.00;100905.69;5048321;28;20183;-74
2023/01/02 00:04:41;;;;;;;;;;;;;;;7.31;100.00;100902.13;5082198;28;19928;-74
2023/01/02 00:07:06;;;;;;;;;;;;;;;7.31;100.00;100903.91;5070558;28;20443;-74
2023/01/02 00:09:32;;;;;;;;;;;;;;;7.31;100.00;100896.88;5070250;28;19927;-75
2023/01/02 00:11:57;;;;;;;;;;;;;;;7.32;100.00;100897.75;5066162;28;20794;-74
2023/01/02 00:14:23;;;;;;;;;;;;;;;7.34;100.00;100901.19;5083982;28;19931;-74
2023/01/02 00:16:48;;;;;;;;;;;;;;;7.37;100.00;100890.56;5049239;28;19967;-74
2023/01/02 00:19:13;;;;;;;;;;;;;;;7.37;100.00;100872.13;5045663;28;19970;-74
2023/01/02 00:21:39;;;;;;;;;;;;;;;7.37;100.00;100869.50;5062495;28;19924;-76
2023/01/02 00:24:04;;;;;;;;;;;;;;;7.39;100.00;100857.13;5045992;28;19924;-75
2023/01/02 00:26:30;;;;;;;;;;;;;;;7.41;100.00;100846.56;5045947;28;19928;-75
2023/01/02 00:28:55;;;;;;;;;;;;;;;7.44;100.00;100849.06;5045772;28;19920;-73
2023/01/02 00:31:21;;;;;;;;;;;;;;;7.47;100.00;100863.00;5063771;28;19925;-75
2023/01/02 00:33:46;;;;;;;;;;;;;;;7.51;100.00;100860.28;5060647;28;19928;-73
2023/01/02 00:36:12;;;;;;;;;;;;;;;7.56;100.00;100847.81;5063779;28;19967;-74
2023/01/02 00:38:37;;;;;;;;;;;;;;;7.60;100.00;100841.53;5063792;28;20003;-74
2023/01/02 00:41:03;;;;;;;;;;;;;;;7.66;100.00;100814.97;5049652;28;19932;-74
2023/01/02 00:43:28;;;;;;;;;;;;;;;7.74;100.00;100810.31;5063306;28;20399;-74
2023/01/02 00:45:54;;;;;;;;;;;;;;;7.83;100.00;100814.41;5062493;28;19959;-74
2023/01/02 00:48:19;;;;;;;;;;;;;;;7.91;100.00;100814.16;5062691;28;20007;-74
2023/01/02 00:50:44;;;;;;;;;;;;;;;8.00;100.00;100815.56;5049980;28;20437;-74
2023/01/02 00:53:10;;;;;;;;;;;;;;;8.08;100.00;100802.13;5061036;28;19927;-74
2023/01/02 00:55:35;;;;;;;;;;;;;;;8.16;100.00;100808.00;5061709;28;19931;-74
2023/01/02 00:58:01;;;;;;;;;;;;;;;8.21;100.00;100803.41;5063604;28;19929;-74
2023/01/02 01:00:26;;;;;;;;;;;;;;;8.26;100.00;100812.03;5061290;28;20010;-74
2023/01/02 01:02:55;;;;;;;;;;;;;;;8.31;100.00;100803.06;5067448;28;20498;-74
2023/01/02 01:05:21;;;;;;;;;;;;;;;8.35;100.00;100804.69;5067006;28;19924;-73
2023/01/02 01:07:46;;;;;;;;;;;;;;;8.38;100.00;100802.81;5067156;28;19932;-74
2023/01/02 01:10:12;;;;;;;;;;;;;;;8.41;100.00;100804.47;5049165;28;19928;-74
2023/01/02 01:12:37;;;;;;;;;;;;;;;8.43;100.00;100800.84;5065233;28;19928;-74
2023/01/02 01:15:03;;;;;;;;;;;;;;;8.44;100.00;100801.69;5065739;28;20021;-73
2023/01/02 01:17:30;;;;;;;;;;;;;;;8.47;100.00;100800.72;5064988;28;19939;-73
2023/01/02 01:19:55;;;;;;;;;;;;;;;8.47;100.00;100804.25;5086025;28;20339;-73
2023/01/02 01:22:21;;;;;;;;;;;;;;;8.49;100.00;100810.31;5069778;28;19970;-73
2023/01/02 01:24:46;;;;;;;;;;;;;;;8.50;100.00;100808.56;5086074;28;19927;-76
2023/01/02 01:27:12;;;;;;;;;;;;;;;8.51;100.00;100811.13;5087265;28;19935;-75
2023/01/02 01:29:37;;;;;;;;;;;;;;;8.52;100.00;100810.25;5086231;28;19974;-74
2023/01/02 01:32:03;;;;;;;;;;;;;;;8.53;100.00;100811.97;5071231;28;19928;-74
2023/01/02 01:34:28;;;;;;;;;;;;;;;8.55;100.00;100806.59;5051475;28;19935;-75
2023/01/02 01:36:54;;;;;;;;;;;;;;;8.55;100.00;100812.75;5086036;28;19928;-75
2023/01/02 01:39:19;;;;;;;;;;;;;;;8.58;100.00;100808.28;5052716;28;19931;-75
2023/01/02 01:41:44;;;;;;;;;;;;;;;8.58;100.00;100806.50;5068485;28;19954;-75
2023/01/02 01:44:29;;;;;;;;;;;;;;;8.59;100.00;100802.06;5086209;28;19960;-75
2023/01/02 01:46:54;;;;;;;;;;;;;;;8.60;100.00;100785.34;5085497;28;19920;-75
2023/01/02 01:49:24;;;;;;;;;;;;;;;8.61;100.00;100779.16;5086283;28;19924;-75
2023/01/02 01:51:50;;;;;;;;;;;;;;;8.61;100.00;100772.06;5068705;28;20399;-76
2023/01/02 01:54:16;;;;;;;;;;;;;;;8.62;100.00;100770.31;5068624;28;20386;-74
2023/01/02 01:56:44;;;;;;;;;;;;;;;8.62;100.00;100772.94;5086000;28;19928;-74
2023/01/02 01:59:09;;;;;;;;;;;;;;;8.64;100.00;100771.97;5057967;28;19928;-75
2023/01/02 02:01:35;;;;;;;;;;;;;;;8.64;100.00;100769.34;5038549;28;19947;-75
2023/01/02 02:04:00;;;;;;;;;;;;;;;8.65;100.00;100764.91;5067871;28;20010;-75
2023/01/02 02:06:25;;;;;;;;;;;;;;;8.66;100.00;100771.91;5085492;28;19939;-75
2023/01/02 02:08:53;;;;;;;;;;;;;;;8.69;100.00;100766.50;5068787;28;20314;-75
2023/01/02 02:11:19;;;;;;;;;;;;;;;8.70;100.00;100757.66;5068280;28;19928;-75
2023/01/02 02:13:44;;;;;;;;;;;;;;;8.72;100.00;100765.53;5066768;28;19930;-75
2023/01/02 02:16:13;;;;;;;;;;;;;;;8.74;100.00;100761.03;5066920;28;19935;-75
2023/01/02 02:18:38;;;;;;;;;;;;;;;8.76;100.00;100759.22;5086252;28;19935;-75
2023/01/02 02:21:03;;;;;;;;;;;;;;;8.77;100.00;100750.38;5086189;28;19928;-75
2023/01/02 02:23:53;;;;;;;;;;;;;;;8.79;100.00;100757.31;5086566;28;19981;-75
2023/01/02 02:26:18;;;;;;;;;;;;;;;8.81;100.00;100744.91;5067504;28;20035;-75
2023/01/02 02:29:22;;;;;;;;;;;;;;;8.83;100.00;100742.22;5085056;28;19964;-75
2023/01/02 02:31:50;;;;;;;;;;;;;;;8.84;100.00;100738.66;5008464;28;19929;-75
2023/01/02 02:34:21;;;;;;;;;;;;;;;8.90;100.00;100734.91;4974685;28;20304;-75
2023/01/02 02:37:05;;;;;;;;;;;;;;;8.93;100.00;100732.16;5046555;28;19967;-75
2023/01/02 02:39:38;;;;;;;;;;;;;;;8.94;100.00;100732.06;5086116;28;19928;-74
2023/01/02 02:42:23;;;;;;;;;;;;;;;8.96;100.00;100732.03;5049731;28;19927;-75
2023/01/02 02:45:07;;;;;;;;;;;;;;;8.96;100.00;100721.47;5071297;28;19935;-75
2023/01/02 02:47:34;;;;;;;;;;;;;;;8.96;100.00;100727.63;5084978;28;20414;-74
2023/01/02 02:50:02;;;;;;;;;;;;;;;8.97;100.00;100728.44;5067762;28;19920;-75
2023/01/02 02:52:45;;;;;;;;;;;;;;;8.98;100.00;100730.16;5066028;28;19923;-75
2023/01/02 02:55:18;;;;;;;;;;;;;;;8.98;100.00;100721.41;5067484;28;19927;-75
2023/01/02 02:57:44;;;;;;;;;;;;;;;8.96;100.00;100724.97;5067220;28;20026;-75
2023/01/02 03:00:11;;;;;;;;;;;;;;;8.98;100.00;100735.44;5067754;28;20458;-75
2023/01/02 03:02:37;;;;;;;;;;;;;;;8.98;100.00;100740.72;5084980;28;20010;-75
2023/01/02 03:05:03;;;;;;;;;;;;;;;8.98;100.00;100737.25;5084482;28;19932;-75
2023/01/02 03:07:38;;;;;;;;;;;;;;;8.98;100.00;100745.16;5049119;28;19952;-75
2023/01/02 03:10:04;;;;;;;;;;;;;;;8.98;100.00;100735.44;5050543;28;20379;-75
2023/01/02 03:12:35;;;;;;;;;;;;;;;8.99;100.00;100733.69;5071119;28;19924;-75
2023/01/02 03:15:00;;;;;;;;;;;;;;;9.00;100.00;100740.69;5084514;28;19928;-75
2023/01/02 03:17:33;;;;;;;;;;;;;;;9.02;100.00;100730.91;5067313;28;19944;-75
2023/01/02 03:20:09;;;;;;;;;;;;;;;9.06;100.00;100732.50;5065100;28;20351;-75
2023/01/02 03:22:35;;;;;;;;;;;;;;;9.08;100.00;100731.53;5064338;28;19928;-75
2023/01/02 03:25:01;;;;;;;;;;;;;;;9.14;100.00;100734.84;5050713;28;19972;-75
2023/01/02 03:27:27;;;;;;;;;;;;;;;9.16;100.00;100736.47;5063326;28;20379;-74
2023/01/02 03:29:53;;;;;;;;;;;;;;;9.18;100.00;100736.41;5051326;28;20538;-74
2023/01/02 03:32:20;;;;;;;;;;;;;;;9.21;100.00;100737.16;5063391;28;19924;-75
2023/01/02 03:34:46;;;;;;;;;;;;;;;9.23;100.00;100729.16;5063345;28;19928;-75
2023/01/02 03:37:13;;;;;;;;;;;;;;;9.24;100.00;100722.97;5063367;28;20337;-76
2023/01/02 03:39:40;;;;;;;;;;;;;;;9.27;100.00;100722.84;5063556;28;19928;-75
2023/01/02 03:42:07;;;;;;;;;;;;;;;9.30;100.00;100719.19;5062206;28;20010;-75
2023/01/02 03:44:36;;;;;;;;;;;;;;;9.32;100.00;100723.50;5063299;28;20204;-75
2023/01/02 03:47:05;;;;;;;;;;;;;;;9.32;100.00;100726.13;5061731;28;19930;-75
2023/01/02 03:49:34;;;;;;;;;;;;;;;9.33;100.00;100733.13;5062850;28;19964;-75
2023/01/02 03:51:59;;;;;;;;;;;;;;;9.34;100.00;100731.34;5050176;28;19931;-76
2023/01/02 03:54:24;;;;;;;;;;;;;;;9.35;100.00;100723.38;5064626;28;20383;-75
2023/01/02 03:57:09;;;;;;;;;;;;;;;9.35;100.00;100727.78;5046735;28;20493;-75
2023/01/02 03:59:53;;;;;;;;;;;;;;;9.36;100.00;100734.78;5064687;28;19960;-75
2023/01/02 04:02:23;;;;;;;;;;;;;;;9.36;100.00;100733.00;5063614;28;20633;-75
2023/01/02 04:04:50;;;;;;;;;;;;;;;9.36;100.00;100725.09;5052311;28;20413;-75
2023/01/02 04:07:34;;;;;;;;;;;;;;;9.36;100.00;100730.38;5062624;28;20356;-75
2023/01/02 04:10:00;;;;;;;;;;;;;;;9.35;100.00;100728.66;5061473;28;20655;-75
2023/01/02 04:12:25;;;;;;;;;;;;;;;9.35;100.00;100731.31;5045487;28;19935;-75
2023/01/02 04:15:01;;;;;;;;;;;;;;;9.36;100.00;100737.44;5061833;28;19928;-76
2023/01/02 04:17:28;;;;;;;;;;;;;;;9.34;100.00;100734.88;5061702;28;19931;-76
2023/01/02 04:19:54;;;;;;;;;;;;;;;9.34;100.00;100732.22;5037411;28;20386;-75
2023/01/02 04:22:20;;;;;;;;;;;;;;;9.34;100.00;100742.81;5049563;28;19928;-75
2023/01/02 04:24:47;;;;;;;;;;;;;;;9.35;100.00;100739.22;5062371;28;19931;-76
2023/01/02 04:27:13;;;;;;;;;;;;;;;9.34;100.00;100748.09;5061839;28;19936;-76
2023/01/02 04:29:39;;;;;;;;;;;;;;;9.34;100.00;100742.81;5061281;28;20462;-75
2023/01/02 04:32:13;;;;;;;;;;;;;;;9.33;100.00;100754.25;5061485;28;19951;-75
2023/01/02 04:34:39;;;;;;;;;;;;;;;9.32;100.00;100749.06;5063069;28;20444;-75
2023/01/02 04:37:04;;;;;;;;;;;;;;;9.30;100.00;100748.25;5067179;28;19932;-75
2023/01/02 04:39:29;;;;;;;;;;;;;;;9.29;100.00;100744.75;5049862;28;19978;-75
2023/01/02 04:41:55;;;;;;;;;;;;;;;9.29;100.00;100746.53;5065596;28;20063;-75
2023/01/02 04:44:20;;;;;;;;;;;;;;;9.26;100.00;100734.31;5066931;28;19981;-74
2023/01/02 04:46:45;;;;;;;;;;;;;;;9.24;100.00;100742.31;5066649;28;19963;-75
2023/01/02 04:49:11;;;;;;;;;;;;;;;9.22;100.00;100740.66;5066697;28;20057;-75
2023/01/02 04:51:36;;;;;;;;;;;;;;;9.21;100.00;100746.88;5065681;28;20624;-75
2023/01/02 04:54:01;;;;;;;;;;;;;;;9.19;100.00;100741.66;5067398;28;19985;-74
2023/01/02 04:56:27;;;;;;;;;;;;;;;9.19;100.00;100749.56;5064445;28;19943;-75
2023/01/02 04:58:52;;;;;;;;;;;;;;;9.19;100.00;100738.13;5064881;28;19932;-75
2023/01/02 05:01:18;;;;;;;;;;;;;;;9.19;100.00;100738.13;5053781;28;19975;-75
2023/01/02 05:03:44;;;;;;;;;;;;;;;9.18;100.00;100734.66;5066177;28;19928;-74
2023/01/02 05:06:09;;;;;;;;;;;;;;;9.18;100.00;100739.06;5066363;28;19928;-74
2023/01/02 05:08:35;;;;;;;;;;;;;;;9.18;100.00;100736.41;5065406;28;19925;-74
2023/01/02 05:11:07;;;;;;;;;;;;;;;9.17;100.00;100730.28;5067456;28;19928;-75
2023/01/02 05:13:32;;;;;;;;;;;;;;;9.17;100.00;100729.41;5066173;28;20382;-75
2023/01/02 05:15:58;;;;;;;;;;;;;;;9.16;100.00;100727.69;5067541;28;19928;-75
2023/01/02 05:18:23;;;;;;;;;;;;;;;9.14;100.00;100730.41;5069833;28;19988;-75
2023/01/02 05:20:48;;;;;;;;;;;;;;;9.13;100.00;100741.03;5087707;28;19933;-75
2023/01/02 05:25:58;;;;;;;;;;;;;;;9.10;100.00;100761.38;5086050;28;19927;-75
2023/01/02 05:28:23;;;;;;;;;;;;;;;9.09;100.00;100759.66;5086139;28;19934;-74
2023/01/02 05:30:48;;;;;;;;;;;;;;;9.08;100.00;100757.94;5068405;28;20054;-75
2023/01/02 05:33:14;;;;;;;;;;;;;;;9.05;100.00;100754.56;5086511;28;19931;-74
2023/01/02 05:35:39;;;;;;;;;;;;;;;9.03;100.00;100753.75;5087015;28;20302;-74
2023/01/02 05:38:04;;;;;;;;;;;;;;;9.02;100.00;100760.81;5087093;28;19955;-75
2023/01/02 05:40:30;;;;;;;;;;;;;;;9.02;100.00;100759.94;5067659;28;19960;-75
2023/01/02 05:42:56;;;;;;;;;;;;;;;9.00;100.00;100761.81;5087208;28;20023;-75
2023/01/02 05:45:21;;;;;;;;;;;;;;;8.99;100.00;100762.72;5087324;28;19930;-75
2023/01/02 05:47:47;;;;;;;;;;;;;;;8.98;100.00;100777.69;5086275;28;19928;-75
2023/01/02 05:50:12;;;;;;;;;;;;;;;8.97;100.00;100781.25;5056208;28;20018;-75
2023/01/02 05:52:37;;;;;;;;;;;;;;;8.97;100.00;100794.47;5086599;28;19924;-75
2023/01/02 05:55:03;;;;;;;;;;;;;;;8.97;100.00;100797.09;5086452;28;20106;-75
2023/01/02 05:57:28;;;;;;;;;;;;;;;8.97;100.00;100805.03;5086566;28;19928;-75
2023/01/02 05:59:54;;;;;;;;;;;;;;;8.96;100.00;100805.94;5086963;28;19930;-75
2023/01/02 06:02:19;;;;;;;;;;;;;;;8.94;100.00;100813.09;5085653;28;19935;-75
2023/01/02 06:04:44;;;;;;;;;;;;;;;8.90;100.00;100816.75;5085707;28;19932;-75
2023/01/02 06:07:10;;;;;;;;;;;;;;;8.84;100.00;100831.06;5067016;28;19927;-75
2023/01/02 06:09:35;;;;;;;;;;;;;;;8.71;100.00;100821.88;5085822;28;19928;-75
2023/01/02 06:12:00;;;;;;;;;;;;;;;8.59;100.00;100828.47;5086214;28;19971;-74
2023/01/02 06:14:26;;;;;;;;;;;;;;;8.47;100.00;100851.75;5067432;28;19974;-75
2023/01/02 06:16:51;;;;;;;;;;;;;;;8.29;100.00;100858.53;5085863;28;20050;-74
2023/01/02 06:19:16;;;;;;;;;;;;;;;8.08;100.00;100871.56;5086565;28;19970;-74
2023/01/02 06:21:42;;;;;;;;;;;;;;;7.87;100.00;100878.41;5086066;28;20050;-74
2023/01/02 06:24:07;;;;;;;;;;;;;;;7.70;100.00;100885.13;5084872;28;20567;-74
2023/01/02 06:26:32;;;;;;;;;;;;;;;7.57;100.00;100886.44;5084599;28;19938;-74
2023/01/02 06:28:58;;;;;;;;;;;;;;;7.47;100.00;100888.50;5085995;28;19974;-74
2023/01/02 06:31:26;;;;;;;;;;;;;;;7.38;100.00;100888.78;5067299;28;19971;-75
2023/01/02 06:33:54;;;;;;;;;;;;;;;7.28;100.00;100885.56;5086096;28;19962;-75
2023/01/02 06:36:20;;;;;;;;;;;;;;;7.20;100.00;100888.44;5048980;28;19975;-75
2023/01/02 06:38:48;;;;;;;;;;;;;;;7.14;100.00;100913.19;5067089;28;20027;-74
2023/01/02 06:41:14;;;;;;;;;;;;;;;7.06;100.00;100923.97;5067884;28;19924;-73
2023/01/02 06:43:40;;;;;;;;;;;;;;;6.99;100.00;100916.28;5085338;28;20414;-73
2023/01/02 06:46:06;;;;;;;;;;;;;;;6.89;100.00;100927.06;5067444;28;20895;-73
2023/01/02 06:48:32;;;;;;;;;;;;;;;6.81;100.00;100918.50;5051002;28;19959;-74
2023/01/02 06:50:58;;;;;;;;;;;;;;;6.78;100.00;100939.66;5068305;28;20033;-74
2023/01/02 06:53:24;;;;;;;;;;;;;;;6.78;100.00;100945.81;5085985;28;19976;-74
2023/01/02 06:55:50;;;;;;;;;;;;;;;6.78;100.00;100939.66;5067323;28;20369;-74
2023/01/02 06:58:15;;;;;;;;;;;;;;;6.79;100.00;100946.66;5066789;28;19928;-75
2023/01/02 07:00:40;;;;;;;;;;;;;;;6.75;100.00;100953.78;5067035;28;19932;-75
2023/01/02 07:03:06;;;;;;;;;;;;;;;6.72;100.00;100953.88;5085686;28;19938;-75
2023/01/02 07:05:31;;;;;;;;;;;;;;;6.71;100.00;100969.69;5085535;28;19938;-75
2023/01/02 07:07:56;;;;;;;;;;;;;;;6.69;100.00;100977.63;5049421;28;19928;-75
2023/01/02 07:10:22;;;;;;;;;;;;;;;6.66;100.00;100975.94;5065705;28;19928;-74
2023/01/02 07:12:47;;;;;;;;;;;;;;;6.63;100.00;100976.03;5067196;28;19931;-73
2023/01/02 07:15:12;;;;;;;;;;;;;;;6.62;100.00;100981.31;5066162;28;20449;-74
2023/01/02 07:17:38;;;;;;;;;;;;;;;6.62;100.00;100986.59;5071398;28;20401;-74
2023/01/02 07:20:03;;;;;;;;;;;;;;;6.61;100.00;101003.28;5066644;28;19931;-73
2023/01/02 07:22:29;;;;;;;;;;;;;;;6.60;100.00;101012.09;5067010;28;19928;-73
2023/01/02 07:24:54;;;;;;;;;;;;;;;6.59;100.00;101018.25;5084549;28;20082;-73
2023/01/02 07:27:19;;;;;;;;;;;;;;;6.60;100.00;101030.50;5084242;28;19980;-73
2023/01/02 07:29:45;;;;;;;;;;;;;;;6.60;100.00;101027.88;5084187;28;19932;-74
2023/01/02 07:32:10;;;;;;;;;;;;;;;6.59;100.00;101024.34;5066822;28;19954;-73
2023/01/02 07:34:35;;;;;;;;;;;;;;;6.59;100.00;101034.88;5071153;28;19928;-74
2023/01/02 07:37:01;;;;;;;;;;;;;;;6.58;100.00;101033.16;5068871;28;20390;-74
2023/01/02 07:39:26;;;;;;;;;;;;;;;6.56;100.00;101034.97;5084771;28;20355;-74
2023/01/02 07:41:51;;;;;;;;;;;;;;;6.56;100.00;101042.00;5085153;28;20326;-74
2023/01/02 07:44:16;;;;;;;;;;;;;;;6.54;100.00;101047.28;5084178;28;20015;-74
2023/01/02 07:46:42;;;;;;;;;;;;;;;6.53;100.00;101058.72;5084908;28;19932;-74
2023/01/02 07:49:09;;;;;;;;;;;;;;;6.52;100.00;101057.00;5084503;28;20002;-74
2023/01/02 07:51:35;;;;;;;;;;;;;;;6.50;100.00;101066.69;5084461;28;19923;-74
2023/01/02 07:54:00;;;;;;;;;;;;;;;6.50;100.00;101074.59;5083884;28;20709;-74
2023/01/02 07:56:25;;;;;;;;;;;;;;;6.49;100.00;101083.38;5083856;28;19971;-74
2023/01/02 07:58:51;;;;;;;;;;;;;;;6.49;100.00;101086.00;5049908;28;20015;-75
2023/01/02 08:01:16;;;;;;;;;;;;;;;6.50;100.00;101100.88;5065195;28;19924;-74
2023/01/02 08:03:41;;;;;;;;;;;;;;;6.49;100.00;101107.06;5065470;28;19924;-74
2023/01/02 08:06:08;;;;;;;;;;;;;;;6.49;100.00;101107.06;5065878;28;20005;-74
2023/01/02 08:08:34;;;;;;;;;;;;;;;6.48;100.00;101115.84;5065767;28;20062;-73
2023/01/02 08:11:02;;;;;;;;;;;;;;;6.48;100.00;101121.13;5065822;28;19928;-74
2023/01/02 08:13:28;;;;;;;;;;;;;;;6.47;100.00;101132.50;5066192;28;20651;-74
2023/01/02 08:15:53;;;;;;;;;;;;;;;6.47;100.00;101145.66;5064691;28;19985;-75
2023/01/02 08:18:18;;;;;;;;;;;;;;;6.47;100.00;101158.81;5065975;28;19932;-74
2023/01/02 08:20:44;;;;;;;;;;;;;;;6.49;100.00;101170.19;5065863;28;19932;-74
2023/01/02 08:23:09;;;;;;;;;;;;;;;6.48;100.00;101171.94;5066139;28;19937;-74
2023/01/02 08:25:34;;;;;;;;;;;;;;;6.48;100.00;101179.84;5082866;28;20552;-74
2023/01/02 08:28:00;;;;;;;;;;;;;;;6.49;100.00;101186.81;5065008;28;19939;-76
2023/01/02 08:30:25;;;;;;;;;;;;;;;6.49;100.00;101201.75;5084486;28;21874;-76
2023/01/02 08:32:53;;;;;;;;;;;;;;;6.48;100.00;101216.66;5066463;28;20389;-75
2023/01/02 08:35:18;;;;;;;;;;;;;;;6.48;100.00;101221.91;5083912;28;19945;-76
2023/01/02 08:37:44;;;;;;;;;;;;;;;6.49;100.00;101228.06;5083368;28;19935;-76
2023/01/02 08:40:09;;;;;;;;;;;;;;;6.49;100.00;101239.44;5069625;28;19955;-76
2023/01/02 08:42:34;;;;;;;;;;;;;;;6.50;100.00;101243.78;5083757;28;19932;-76
2023/01/02 08:45:03;;;;;;;;;;;;;;;6.50;100.00;101251.69;5084283;28;19984;-76
2023/01/02 08:47:28;;;;;;;;;;;;;;;6.51;100.00;101257.81;5066160;28;20579;-76
2023/01/02 08:49:54;;;;;;;;;;;;;;;6.52;100.00;101264.81;5083716;28;19924;-76
2023/01/02 08:52:19;;;;;;;;;;;;;;;6.53;100.00;101266.53;5083234;28;20003;-76
2023/01/02 08:54:45;;;;;;;;;;;;;;;6.55;100.00;101270.03;5064226;28;20413;-76
2023/01/02 08:57:10;;;;;;;;;;;;;;;6.56;100.00;101271.75;5082900;28;20108;-76
2023/01/02 08:59:35;;;;;;;;;;;;;;;6.58;100.00;101280.47;5065106;28;19931;-76
2023/01/02 09:02:01;;;;;;;;;;;;;;;6.60;100.00;101280.44;5083388;28;20495;-76
2023/01/02 09:04:26;;;;;;;;;;;;;;;6.61;100.00;101285.69;5084608;28;19935;-76
2023/01/02 09:06:51;;;;;;;;;;;;;;;6.63;100.00;101281.22;5083641;28;19934;-76
2023/01/02 09:09:17;;;;;;;;;;;;;;;6.65;100.00;101282.06;5065112;28;19927;-76
2023/01/02 09:11:44;;;;;;;;;;;;;;;6.65;100.00;101281.22;5065437;28;20397;-76
2023/01/02 09:14:09;;;;;;;;;;;;;;;6.66;100.00;101285.56;5065692;28;19930;-75
2023/01/02 09:16:34;;;;;;;;;;;;;;;6.69;100.00;101297.78;5083053;28;19928;-76
2023/01/02 09:19:00;;;;;;;;;;;;;;;6.68;100.00;101290.78;5065603;28;20138;-76
2023/01/02 09:21:25;;;;;;;;;;;;;;;6.70;100.00;101291.63;5048255;28;19927;-76
2023/01/02 09:23:51;;;;;;;;;;;;;;;6.71;100.00;101298.63;5087597;28;19935;-76
2023/01/02 09:26:16;;;;;;;;;;;;;;;6.72;100.00;101295.09;5068661;28;19957;-76
2023/01/02 09:28:42;;;;;;;;;;;;;;;6.74;100.00;101316.97;5068552;28;19927;-76
2023/01/02 09:31:08;;;;;;;;;;;;;;;6.73;100.00;101321.38;5052928;28;20010;-76
2023/01/02 09:33:33;;;;;;;;;;;;;;;6.74;100.00;101332.75;5051878;28;20126;-76
2023/01/02 09:36:02;;;;;;;;;;;;;;;6.75;100.00;101347.66;5087174;28;19935;-76
2023/01/02 09:38:28;;;;;;;;;;;;;;;6.75;100.00;101356.41;5086340;28;19928;-76
2023/01/02 09:40:53;;;;;;;;;;;;;;;6.78;100.00;101360.75;5055699;28;20587;-76
2023/01/02 09:43:54;;;;;;;;;;;;;;;6.81;100.00;101368.56;5073157;28;20059;-76
2023/01/02 09:46:38;;;;;;;;;;;;;;;6.84;100.00;101365.88;5011627;28;19987;-76
2023/01/02 09:49:04;;;;;;;;;;;;;;;6.87;100.00;101363.16;5080334;28;19928;-77
2023/01/02 09:51:29;;;;;;;;;;;;;;;6.89;100.00;101360.50;5068516;28;20464;-76
2023/01/02 09:53:54;;;;;;;;;;;;;;;6.90;100.00;101364.88;5068023;28;20206;-76
2023/01/02 09:56:24;;;;;;;;;;;;;;;6.91;100.00;101370.09;5086607;28;19932;-76
2023/01/02 09:58:53;;;;;;;;;;;;;;;6.92;100.00;101363.94;5067847;28;19930;-76
2023/01/02 10:01:22;;;;;;;;;;;;;;;6.92;100.00;101374.47;5093751;28;20042;-76
2023/01/02 10:03:55;;;;;;;;;;;;;;;6.92;100.00;101379.72;5075541;28;19953;-74
2023/01/02 10:06:20;;;;;;;;;;;;;;;6.91;100.00;101380.63;5068546;28;20001;-74
2023/01/02 10:08:55;;;;;;;;;;;;;;;6.89;100.00;101371.91;5067834;28;19927;-74
2023/01/02 10:11:20;;;;;;;;;;;;;;;6.90;100.00;101376.28;5086351;28;19973;-74
2023/01/02 10:13:56;;;;;;;;;;;;;;;6.89;100.00;101366.66;5086866;28;19923;-74
2023/01/02 10:16:25;;;;;;;;;;;;;;;6.90;100.00;101381.53;5068143;28;19959;-74
2023/01/02 10:18:51;;;;;;;;;;;;;;;6.88;100.00;101388.63;5067159;28;19976;-75
2023/01/02 10:21:20;;;;;;;;;;;;;;;6.88;100.00;101388.63;5067925;28;19945;-76
2023/01/02 10:23:46;;;;;;;;;;;;;;;6.86;100.00;101403.56;5055687;28;20025;-75
2023/01/02 10:26:13;;;;;;;;;;;;;;;6.85;100.00;101398.31;5052708;28;20371;-75
2023/01/02 10:28:57;;;;;;;;;;;;;;;6.82;100.00;101386.13;5072116;28;19931;-76
2023/01/02 10:31:41;;;;;;;;;;;;;;;6.80;100.00;101382.63;5061482;28;19932;-76
2023/01/02 10:34:11;;;;;;;;;;;;;;;6.77;100.00;101375.66;5084196;28;19981;-75
2023/01/02 10:36:40;;;;;;;;;;;;;;;6.76;100.00;101384.44;5067265;28;19924;-74
2023/01/02 10:39:06;;;;;;;;;;;;;;;6.74;100.00;101380.13;5063931;28;19936;-79
2023/01/02 10:41:31;;;;;;;;;;;;;;;6.72;100.00;101377.53;5068738;28;20028;-75
2023/01/02 10:44:07;;;;;;;;;;;;;;;6.72;100.00;101392.44;5082668;28;19932;-76
2023/01/02 10:46:36;;;;;;;;;;;;;;;6.70;100.00;101383.72;5062709;28;19935;-75
2023/01/02 10:49:02;;;;;;;;;;;;;;;6.68;100.00;101386.38;5047271;28;20379;-76
2023/01/02 10:51:28;;;;;;;;;;;;;;;6.66;100.00;101383.78;5045867;28;19967;-76
2023/01/02 10:54:04;;;;;;;;;;;;;;;6.65;100.00;101389.09;5063381;28;19928;-76
2023/01/02 10:56:30;;;;;;;;;;;;;;;6.63;100.00;101402.28;5081445;28;20022;-75
2023/01/02 10:58:58;;;;;;;;;;;;;;;6.62;100.00;101400.53;5065831;28;20323;-76
2023/01/02 11:01:23;;;;;;;;;;;;;;;6.62;100.00;101404.91;5060081;28;19931;-76
2023/01/02 11:03:56;;;;;;;;;;;;;;;6.61;100.00;101398.81;5084113;28;19963;-76
2023/01/02 11:06:25;;;;;;;;;;;;;;;6.61;100.00;101411.97;5081930;28;20011;-76
2023/01/02 11:08:55;;;;;;;;;;;;;;;6.61;100.00;101413.72;5062690;28;20662;-75
2023/01/02 11:11:21;;;;;;;;;;;;;;;6.61;100.00;101409.34;5081242;28;20533;-75
2023/01/02 11:13:47;;;;;;;;;;;;;;;6.66;100.00;101404.81;5064034;28;19954;-76
2023/01/02 11:16:13;;;;;;;;;;;;;;;6.71;100.00;101410.00;5076552;28;19932;-76
2023/01/02 11:18:38;;;;;;;;;;;;;;;6.75;100.00;101410.81;5063126;28;19928;-75
2023/01/02 11:21:04;;;;;;;;;;;;;;;6.80;100.00;101419.47;5082915;28;20391;-76
2023/01/02 11:23:34;;;;;;;;;;;;;;;6.84;100.00;101415.88;5062499;28;20029;-76
2023/01/02 11:25:59;;;;;;;;;;;;;;;6.88;100.00;101419.31;5052283;28;20404;-75
2023/01/02 11:28:26;;;;;;;;;;;;;;;6.91;100.00;101417.50;5061727;28;20015;-74
2023/01/02 11:31:01;;;;;;;;;;;;;;;6.95;100.00;101420.03;5047284;28;20078;-74
2023/01/02 11:33:28;;;;;;;;;;;;;;;6.98;100.00;101417.38;5060637;28;19928;-74
2023/01/02 11:35:55;;;;;;;;;;;;;;;7.00;100.00;101415.56;5061237;28;19931;-75
2023/01/02 11:38:26;;;;;;;;;;;;;;;7.02;100.00;101422.53;5067074;28;19972;-74
2023/01/02 11:40:56;;;;;;;;;;;;;;;7.02;100.00;101421.66;5083329;28;20023;-74
2023/01/02 11:46:09;;;;;;;;;;;;;;;7.07;100.00;101431.19;5061738;28;19959;-74
2023/01/02 11:48:34;;;;;;;;;;;;;;;7.08;100.00;101432.06;5061195;28;20340;-74
2023/01/02 11:51:00;;;;;;;;;;;;;;;7.09;100.00;101439.09;5062086;28;19950;-74
2023/01/02 11:53:30;;;;;;;;;;;;;;;7.10;100.00;101443.44;5063886;28;20501;-73
2023/01/02 11:55:57;;;;;;;;;;;;;;;7.15;100.00;101441.56;5061660;28;19928;-74
2023/01/02 11:58:29;;;;;;;;;;;;;;;7.18;100.00;101436.22;5062383;28;20009;-76
2023/01/02 12:00:55;;;;;;;;;;;;;;;7.20;100.00;101437.06;5079851;28;19923;-74
2023/01/02 12:03:22;;;;;;;;;;;;;;;7.23;100.00;101443.19;5062275;28;20145;-75
2023/01/02 12:05:51;;;;;;;;;;;;;;;7.25;100.00;101450.13;5046249;28;20563;-75
2023/01/02 12:08:31;;;;;;;;;;;;;;;7.25;100.00;101451.91;5057221;28;19924;-74
2023/01/02 12:11:02;;;;;;;;;;;;;;;7.27;100.00;101466.78;5060943;28;19985;-74
2023/01/02 12:13:50;;;;;;;;;;;;;;;7.29;100.00;101466.72;5050509;28;20085;-75
2023/01/02 12:16:16;;;;;;;;;;;;;;;7.31;100.00;101467.59;5030691;28;19927;-74
2023/01/02 12:18:46;;;;;;;;;;;;;;;7.33;100.00;101469.28;5073818;28;20306;-75
2023/01/02 12:21:20;;;;;;;;;;;;;;;7.33;100.00;101468.41;5051742;28;19978;-73
2023/01/02 12:24:05;;;;;;;;;;;;;;;7.37;100.00;101472.72;5053084;28;20031;-75
2023/01/02 12:26:33;;;;;;;;;;;;;;;7.39;100.00;101473.53;5056757;28;19923;-75
2023/01/02 12:29:02;;;;;;;;;;;;;;;7.43;100.00;101476.97;5049541;28;19932;-75
2023/01/02 12:31:37;;;;;;;;;;;;;;;7.45;100.00;101480.44;5048260;28;21977;-75
2023/01/02 12:34:15;;;;;;;;;;;;;;;7.46;100.00;101480.41;5054011;28;19989;-76
2023/01/02 12:36:52;;;;;;;;;;;;;;;7.46;100.00;101480.41;5056410;28;21568;-75
2023/01/02 12:39:21;;;;;;;;;;;;;;;7.48;100.00;101493.56;5055630;28;19990;-75
2023/01/02 12:42:05;;;;;;;;;;;;;;;7.50;100.00;101485.59;5058274;28;19928;-75
2023/01/02 12:44:36;;;;;;;;;;;;;;;7.50;100.00;101483.84;5057850;28;20379;-76